sensor_id;sensor_type;location;lat;lon;timestamp;P1;durP1;ratioP1;P2;durP2;ratioP2
74793;SDS011;63320;50.768;6.724;2023-09-30T00:00:57;13.68;;;3.83;;
74793;SDS011;63320;50.768;6.724;2023-09-30T00:03:23;7.88;;;3.70;;
74793;SDS011;63320;50.768;6.724;2023-09-30T00:05:48;10.95;;;4.38;;
74793;SDS011;63320;50.768;6.724;2023-09-30T00:08:15;9.13;;;4.05;;
74793;SDS011;63320;50.768;6.724;2023-09-30T00:10:41;12.80;;;3.80;;
74793;SDS011;63320;50.768;6.724;2023-09-30T00:13:06;10.20;;;3.97;;
74793;SDS011;63320;50.768;6.724;2023-09-30T00:15:31;9.88;;;4.00;;
74793;SDS011;63320;50.768;6.724;2023-09-30T00:17:57;10.38;;;3.85;;
74793;SDS011;63320;50.768;6.724;2023-09-30T00:20:22;11.18;;;4.30;;
74793;SDS011;63320;50.768;6.724;2023-09-30T00:22:47;12.98;;;4.00;;
74793;SDS011;63320;50.768;6.724;2023-09-30T00:25:14;11.52;;;3.42;;
74793;SDS011;63320;50.768;6.724;2023-09-30T00:27:40;9.45;;;3.78;;
74793;SDS011;63320;50.768;6.724;2023-09-30T00:30:06;13.35;;;4.00;;
74793;SDS011;63320;50.768;6.724;2023-09-30T00:32:32;10.65;;;3.88;;
74793;SDS011;63320;50.768;6.724;2023-09-30T00:34:57;10.43;;;3.55;;
74793;SDS011;63320;50.768;6.724;2023-09-30T00:37:22;11.05;;;3.78;;
74793;SDS011;63320;50.768;6.724;2023-09-30T00:39:48;10.27;;;3.40;;
74793;SDS011;63320;50.768;6.724;2023-09-30T00:42:14;13.75;;;3.83;;
74793;SDS011;63320;50.768;6.724;2023-09-30T00:44:40;7.75;;;3.80;;
74793;SDS011;63320;50.768;6.724;2023-09-30T00:47:05;9.68;;;3.53;;
74793;SDS011;63320;50.768;6.724;2023-09-30T00:49:30;11.55;;;3.45;;
74793;SDS011;63320;50.768;6.724;2023-09-30T00:51:57;9.40;;;3.75;;
74793;SDS011;63320;50.768;6.724;2023-09-30T00:54:24;9.70;;;3.47;;
74793;SDS011;63320;50.768;6.724;2023-09-30T00:56:51;8.90;;;3.20;;
74793;SDS011;63320;50.768;6.724;2023-09-30T00:59:20;10.75;;;3.28;;
74793;SDS011;63320;50.768;6.724;2023-09-30T01:01:45;13.07;;;3.88;;
74793;SDS011;63320;50.768;6.724;2023-09-30T01:04:11;9.63;;;3.63;;
74793;SDS011;63320;50.768;6.724;2023-09-30T01:06:37;10.93;;;3.45;;
74793;SDS011;63320;50.768;6.724;2023-09-30T01:09:03;9.13;;;3.28;;
74793;SDS011;63320;50.768;6.724;2023-09-30T01:11:28;10.50;;;3.10;;
74793;SDS011;63320;50.768;6.724;2023-09-30T01:13:54;10.05;;;3.40;;
74793;SDS011;63320;50.768;6.724;2023-09-30T01:16:21;11.80;;;4.13;;
74793;SDS011;63320;50.768;6.724;2023-09-30T01:18:46;10.05;;;4.53;;
74793;SDS011;63320;50.768;6.724;2023-09-30T01:21:12;10.90;;;5.10;;
74793;SDS011;63320;50.768;6.724;2023-09-30T01:23:39;13.40;;;4.55;;
74793;SDS011;63320;50.768;6.724;2023-09-30T01:26:05;11.77;;;3.65;;
74793;SDS011;63320;50.768;6.724;2023-09-30T01:28:31;10.98;;;3.78;;
74793;SDS011;63320;50.768;6.724;2023-09-30T01:30:57;8.75;;;3.33;;
74793;SDS011;63320;50.768;6.724;2023-09-30T01:33:22;9.70;;;3.45;;
74793;SDS011;63320;50.768;6.724;2023-09-30T01:35:48;10.70;;;3.75;;
74793;SDS011;63320;50.768;6.724;2023-09-30T01:38:13;9.05;;;3.67;;
74793;SDS011;63320;50.768;6.724;2023-09-30T01:40:40;11.13;;;3.70;;
74793;SDS011;63320;50.768;6.724;2023-09-30T01:43:05;11.80;;;3.75;;
74793;SDS011;63320;50.768;6.724;2023-09-30T01:45:31;11.30;;;3.33;;
74793;SDS011;63320;50.768;6.724;2023-09-30T01:47:56;9.82;;;3.15;;
74793;SDS011;63320;50.768;6.724;2023-09-30T01:50:21;8.60;;;3.38;;
74793;SDS011;63320;50.768;6.724;2023-09-30T01:52:47;9.75;;;3.17;;
74793;SDS011;63320;50.768;6.724;2023-09-30T01:55:12;9.55;;;3.50;;
74793;SDS011;63320;50.768;6.724;2023-09-30T01:57:39;8.32;;;3.00;;
74793;SDS011;63320;50.768;6.724;2023-09-30T02:00:05;12.13;;;3.83;;
74793;SDS011;63320;50.768;6.724;2023-09-30T02:02:31;9.55;;;3.03;;
74793;SDS011;63320;50.768;6.724;2023-09-30T02:04:56;11.77;;;3.33;;
74793;SDS011;63320;50.768;6.724;2023-09-30T02:07:22;9.70;;;3.30;;
74793;SDS011;63320;50.768;6.724;2023-09-30T02:09:47;9.18;;;2.67;;
74793;SDS011;63320;50.768;6.724;2023-09-30T02:12:13;10.20;;;3.10;;
74793;SDS011;63320;50.768;6.724;2023-09-30T02:14:40;13.07;;;3.42;;
74793;SDS011;63320;50.768;6.724;2023-09-30T02:17:05;10.95;;;3.45;;
74793;SDS011;63320;50.768;6.724;2023-09-30T02:19:31;11.43;;;3.10;;
74793;SDS011;63320;50.768;6.724;2023-09-30T02:21:56;14.48;;;3.63;;
74793;SDS011;63320;50.768;6.724;2023-09-30T02:24:21;10.90;;;3.05;;
74793;SDS011;63320;50.768;6.724;2023-09-30T02:26:47;10.50;;;3.28;;
74793;SDS011;63320;50.768;6.724;2023-09-30T02:29:12;9.18;;;3.17;;
74793;SDS011;63320;50.768;6.724;2023-09-30T02:31:39;13.50;;;3.78;;
74793;SDS011;63320;50.768;6.724;2023-09-30T02:34:04;12.75;;;3.40;;
74793;SDS011;63320;50.768;6.724;2023-09-30T02:36:29;13.48;;;3.40;;
74793;SDS011;63320;50.768;6.724;2023-09-30T02:38:55;10.73;;;3.40;;
74793;SDS011;63320;50.768;6.724;2023-09-30T02:41:20;12.48;;;3.75;;
74793;SDS011;63320;50.768;6.724;2023-09-30T02:43:45;11.52;;;3.95;;
74793;SDS011;63320;50.768;6.724;2023-09-30T02:46:10;10.30;;;2.88;;
74793;SDS011;63320;50.768;6.724;2023-09-30T02:48:37;13.50;;;3.50;;
74793;SDS011;63320;50.768;6.724;2023-09-30T02:51:02;13.90;;;3.80;;
74793;SDS011;63320;50.768;6.724;2023-09-30T02:53:28;15.40;;;3.78;;
74793;SDS011;63320;50.768;6.724;2023-09-30T02:55:53;10.90;;;3.72;;
74793;SDS011;63320;50.768;6.724;2023-09-30T02:58:18;10.07;;;4.00;;
74793;SDS011;63320;50.768;6.724;2023-09-30T03:00:47;10.02;;;3.47;;
74793;SDS011;63320;50.768;6.724;2023-09-30T03:03:12;9.75;;;3.53;;
74793;SDS011;63320;50.768;6.724;2023-09-30T03:05:39;10.50;;;3.50;;
74793;SDS011;63320;50.768;6.724;2023-09-30T03:08:04;14.05;;;3.30;;
74793;SDS011;63320;50.768;6.724;2023-09-30T03:10:30;10.40;;;3.40;;
74793;SDS011;63320;50.768;6.724;2023-09-30T03:12:55;11.80;;;3.88;;
74793;SDS011;63320;50.768;6.724;2023-09-30T03:15:21;15.68;;;3.63;;
74793;SDS011;63320;50.768;6.724;2023-09-30T03:17:47;10.52;;;3.13;;
74793;SDS011;63320;50.768;6.724;2023-09-30T03:20:13;10.70;;;3.42;;
74793;SDS011;63320;50.768;6.724;2023-09-30T03:22:40;9.43;;;3.45;;
74793;SDS011;63320;50.768;6.724;2023-09-30T03:25:06;8.68;;;3.60;;
74793;SDS011;63320;50.768;6.724;2023-09-30T03:27:32;10.65;;;3.67;;
74793;SDS011;63320;50.768;6.724;2023-09-30T03:29:58;9.93;;;4.05;;
74793;SDS011;63320;50.768;6.724;2023-09-30T03:32:23;12.95;;;4.00;;
74793;SDS011;63320;50.768;6.724;2023-09-30T03:34:48;14.68;;;4.60;;
74793;SDS011;63320;50.768;6.724;2023-09-30T03:37:14;11.23;;;3.88;;
74793;SDS011;63320;50.768;6.724;2023-09-30T03:39:40;11.60;;;3.10;;
74793;SDS011;63320;50.768;6.724;2023-09-30T03:42:06;13.10;;;3.40;;
74793;SDS011;63320;50.768;6.724;2023-09-30T03:44:31;11.30;;;4.18;;
74793;SDS011;63320;50.768;6.724;2023-09-30T03:46:56;12.77;;;3.85;;
74793;SDS011;63320;50.768;6.724;2023-09-30T03:49:22;13.82;;;4.10;;
74793;SDS011;63320;50.768;6.724;2023-09-30T03:51:47;11.52;;;3.30;;
74793;SDS011;63320;50.768;6.724;2023-09-30T03:54:12;12.60;;;4.18;;
74793;SDS011;63320;50.768;6.724;2023-09-30T03:56:39;11.65;;;4.03;;
74793;SDS011;63320;50.768;6.724;2023-09-30T03:59:04;11.40;;;3.80;;
74793;SDS011;63320;50.768;6.724;2023-09-30T04:01:30;12.07;;;4.22;;
74793;SDS011;63320;50.768;6.724;2023-09-30T04:03:55;11.43;;;4.05;;
74793;SDS011;63320;50.768;6.724;2023-09-30T04:06:20;13.80;;;3.97;;
74793;SDS011;63320;50.768;6.724;2023-09-30T04:08:46;14.57;;;4.00;;
74793;SDS011;63320;50.768;6.724;2023-09-30T04:11:12;11.15;;;4.95;;
74793;SDS011;63320;50.768;6.724;2023-09-30T04:13:38;13.35;;;4.45;;
74793;SDS011;63320;50.768;6.724;2023-09-30T04:16:03;15.13;;;4.97;;
74793;SDS011;63320;50.768;6.724;2023-09-30T04:18:29;12.75;;;4.47;;
74793;SDS011;63320;50.768;6.724;2023-09-30T04:20:54;13.52;;;3.72;;
74793;SDS011;63320;50.768;6.724;2023-09-30T04:23:20;11.80;;;4.60;;
74793;SDS011;63320;50.768;6.724;2023-09-30T04:25:45;12.05;;;4.60;;
74793;SDS011;63320;50.768;6.724;2023-09-30T04:28:10;10.27;;;4.18;;
74793;SDS011;63320;50.768;6.724;2023-09-30T04:30:37;14.77;;;5.25;;
74793;SDS011;63320;50.768;6.724;2023-09-30T04:33:03;9.48;;;4.35;;
74793;SDS011;63320;50.768;6.724;2023-09-30T04:35:28;12.93;;;4.82;;
74793;SDS011;63320;50.768;6.724;2023-09-30T04:37:54;13.65;;;5.35;;
74793;SDS011;63320;50.768;6.724;2023-09-30T04:40:19;13.27;;;4.93;;
74793;SDS011;63320;50.768;6.724;2023-09-30T04:42:44;12.65;;;4.68;;
74793;SDS011;63320;50.768;6.724;2023-09-30T04:45:10;10.10;;;4.60;;
74793;SDS011;63320;50.768;6.724;2023-09-30T04:47:38;12.35;;;4.82;;
74793;SDS011;63320;50.768;6.724;2023-09-30T04:50:03;12.68;;;4.57;;
74793;SDS011;63320;50.768;6.724;2023-09-30T04:52:30;10.63;;;5.32;;
74793;SDS011;63320;50.768;6.724;2023-09-30T04:54:55;14.98;;;6.38;;
74793;SDS011;63320;50.768;6.724;2023-09-30T04:57:21;13.27;;;7.13;;
74793;SDS011;63320;50.768;6.724;2023-09-30T04:59:46;14.25;;;7.32;;
74793;SDS011;63320;50.768;6.724;2023-09-30T05:02:11;14.68;;;7.80;;
74793;SDS011;63320;50.768;6.724;2023-09-30T05:04:38;15.82;;;9.23;;
74793;SDS011;63320;50.768;6.724;2023-09-30T05:07:03;16.27;;;8.48;;
74793;SDS011;63320;50.768;6.724;2023-09-30T05:09:29;15.05;;;8.23;;
74793;SDS011;63320;50.768;6.724;2023-09-30T05:11:54;14.50;;;8.70;;
74793;SDS011;63320;50.768;6.724;2023-09-30T05:14:19;16.15;;;8.77;;
74793;SDS011;63320;50.768;6.724;2023-09-30T05:16:45;14.05;;;8.90;;
74793;SDS011;63320;50.768;6.724;2023-09-30T05:19:10;15.63;;;9.95;;
74793;SDS011;63320;50.768;6.724;2023-09-30T05:21:37;17.48;;;10.52;;
74793;SDS011;63320;50.768;6.724;2023-09-30T05:24:03;17.75;;;11.30;;
74793;SDS011;63320;50.768;6.724;2023-09-30T05:26:29;20.50;;;11.68;;
74793;SDS011;63320;50.768;6.724;2023-09-30T05:28:54;18.20;;;11.55;;
74793;SDS011;63320;50.768;6.724;2023-09-30T05:31:19;20.48;;;12.18;;
74793;SDS011;63320;50.768;6.724;2023-09-30T05:33:45;16.08;;;11.02;;
74793;SDS011;63320;50.768;6.724;2023-09-30T05:36:10;17.73;;;10.48;;
74793;SDS011;63320;50.768;6.724;2023-09-30T05:38:37;16.80;;;11.32;;
74793;SDS011;63320;50.768;6.724;2023-09-30T05:41:02;17.05;;;11.15;;
74793;SDS011;63320;50.768;6.724;2023-09-30T05:43:28;16.92;;;11.50;;
74793;SDS011;63320;50.768;6.724;2023-09-30T05:45:53;19.35;;;11.25;;
74793;SDS011;63320;50.768;6.724;2023-09-30T05:48:18;16.73;;;11.13;;
74793;SDS011;63320;50.768;6.724;2023-09-30T05:50:44;15.90;;;10.35;;
74793;SDS011;63320;50.768;6.724;2023-09-30T05:53:09;16.98;;;10.60;;
74793;SDS011;63320;50.768;6.724;2023-09-30T05:55:36;18.67;;;11.68;;
74793;SDS011;63320;50.768;6.724;2023-09-30T05:58:02;18.25;;;11.80;;
74793;SDS011;63320;50.768;6.724;2023-09-30T06:00:29;16.33;;;10.82;;
74793;SDS011;63320;50.768;6.724;2023-09-30T06:02:54;19.05;;;12.25;;
74793;SDS011;63320;50.768;6.724;2023-09-30T06:05:19;20.73;;;11.95;;
74793;SDS011;63320;50.768;6.724;2023-09-30T06:07:45;15.15;;;10.60;;
74793;SDS011;63320;50.768;6.724;2023-09-30T06:10:10;17.50;;;11.30;;
74793;SDS011;63320;50.768;6.724;2023-09-30T06:12:37;19.17;;;11.23;;
74793;SDS011;63320;50.768;6.724;2023-09-30T06:15:03;18.02;;;10.77;;
74793;SDS011;63320;50.768;6.724;2023-09-30T06:17:29;19.83;;;11.20;;
74793;SDS011;63320;50.768;6.724;2023-09-30T06:19:56;17.42;;;11.00;;
74793;SDS011;63320;50.768;6.724;2023-09-30T06:22:22;18.70;;;10.63;;
74793;SDS011;63320;50.768;6.724;2023-09-30T06:24:47;18.23;;;11.27;;
74793;SDS011;63320;50.768;6.724;2023-09-30T06:27:12;18.02;;;10.80;;
74793;SDS011;63320;50.768;6.724;2023-09-30T06:29:39;16.95;;;10.50;;
74793;SDS011;63320;50.768;6.724;2023-09-30T06:32:04;18.50;;;11.00;;
74793;SDS011;63320;50.768;6.724;2023-09-30T06:34:30;15.43;;;9.02;;
74793;SDS011;63320;50.768;6.724;2023-09-30T06:36:55;16.48;;;9.52;;
74793;SDS011;63320;50.768;6.724;2023-09-30T06:39:20;16.50;;;10.23;;
74793;SDS011;63320;50.768;6.724;2023-09-30T06:41:45;15.98;;;10.68;;
74793;SDS011;63320;50.768;6.724;2023-09-30T06:44:11;19.17;;;9.88;;
74793;SDS011;63320;50.768;6.724;2023-09-30T06:46:37;18.73;;;10.18;;
74793;SDS011;63320;50.768;6.724;2023-09-30T06:49:03;18.38;;;12.00;;
74793;SDS011;63320;50.768;6.724;2023-09-30T06:51:28;16.17;;;10.57;;
74793;SDS011;63320;50.768;6.724;2023-09-30T06:53:54;16.35;;;10.02;;
74793;SDS011;63320;50.768;6.724;2023-09-30T06:56:19;16.80;;;10.18;;
74793;SDS011;63320;50.768;6.724;2023-09-30T06:58:44;20.60;;;11.52;;
74793;SDS011;63320;50.768;6.724;2023-09-30T07:01:14;17.65;;;10.57;;
74793;SDS011;63320;50.768;6.724;2023-09-30T07:03:41;15.38;;;9.85;;
74793;SDS011;63320;50.768;6.724;2023-09-30T07:06:07;16.63;;;9.63;;
74793;SDS011;63320;50.768;6.724;2023-09-30T07:08:32;15.95;;;9.77;;
74793;SDS011;63320;50.768;6.724;2023-09-30T07:10:57;15.63;;;9.45;;
74793;SDS011;63320;50.768;6.724;2023-09-30T07:13:23;13.90;;;8.60;;
74793;SDS011;63320;50.768;6.724;2023-09-30T07:15:48;13.27;;;7.63;;
74793;SDS011;63320;50.768;6.724;2023-09-30T07:18:13;14.85;;;8.27;;
74793;SDS011;63320;50.768;6.724;2023-09-30T07:20:40;12.25;;;7.90;;
74793;SDS011;63320;50.768;6.724;2023-09-30T07:23:05;15.70;;;8.95;;
74793;SDS011;63320;50.768;6.724;2023-09-30T07:25:30;11.98;;;8.10;;
74793;SDS011;63320;50.768;6.724;2023-09-30T07:27:56;13.60;;;7.97;;
74793;SDS011;63320;50.768;6.724;2023-09-30T07:30:22;10.77;;;7.10;;
74793;SDS011;63320;50.768;6.724;2023-09-30T07:32:48;12.27;;;6.82;;
74793;SDS011;63320;50.768;6.724;2023-09-30T07:35:13;10.57;;;6.78;;
74793;SDS011;63320;50.768;6.724;2023-09-30T07:37:40;9.68;;;6.05;;
74793;SDS011;63320;50.768;6.724;2023-09-30T07:40:06;10.35;;;6.40;;
74793;SDS011;63320;50.768;6.724;2023-09-30T07:42:32;9.65;;;5.63;;
74793;SDS011;63320;50.768;6.724;2023-09-30T07:44:57;10.13;;;5.50;;
74793;SDS011;63320;50.768;6.724;2023-09-30T07:47:22;8.15;;;4.97;;
74793;SDS011;63320;50.768;6.724;2023-09-30T07:49:48;8.07;;;4.32;;
74793;SDS011;63320;50.768;6.724;2023-09-30T07:52:13;7.68;;;4.35;;
74793;SDS011;63320;50.768;6.724;2023-09-30T07:54:40;9.00;;;4.45;;
74793;SDS011;63320;50.768;6.724;2023-09-30T07:57:05;8.10;;;3.95;;
74793;SDS011;63320;50.768;6.724;2023-09-30T07:59:30;10.32;;;4.40;;
74793;SDS011;63320;50.768;6.724;2023-09-30T08:01:56;8.23;;;4.22;;
74793;SDS011;63320;50.768;6.724;2023-09-30T08:04:21;8.20;;;4.20;;
74793;SDS011;63320;50.768;6.724;2023-09-30T08:06:46;7.85;;;4.30;;
74793;SDS011;63320;50.768;6.724;2023-09-30T08:09:12;8.38;;;4.57;;
74793;SDS011;63320;50.768;6.724;2023-09-30T08:11:39;9.20;;;4.93;;
74793;SDS011;63320;50.768;6.724;2023-09-30T08:14:05;8.18;;;4.28;;
74793;SDS011;63320;50.768;6.724;2023-09-30T08:16:30;8.05;;;4.65;;
74793;SDS011;63320;50.768;6.724;2023-09-30T08:18:55;7.22;;;3.63;;
74793;SDS011;63320;50.768;6.724;2023-09-30T08:21:21;8.60;;;3.60;;
74793;SDS011;63320;50.768;6.724;2023-09-30T08:23:46;7.45;;;4.30;;
74793;SDS011;63320;50.768;6.724;2023-09-30T08:26:11;7.22;;;4.10;;
74793;SDS011;63320;50.768;6.724;2023-09-30T08:28:38;7.35;;;3.45;;
74793;SDS011;63320;50.768;6.724;2023-09-30T08:31:03;9.57;;;3.92;;
74793;SDS011;63320;50.768;6.724;2023-09-30T08:33:29;7.78;;;3.92;;
74793;SDS011;63320;50.768;6.724;2023-09-30T08:35:54;8.25;;;3.90;;
74793;SDS011;63320;50.768;6.724;2023-09-30T08:38:19;10.13;;;3.88;;
74793;SDS011;63320;50.768;6.724;2023-09-30T08:40:45;8.43;;;4.00;;
74793;SDS011;63320;50.768;6.724;2023-09-30T08:43:11;9.30;;;4.10;;
74793;SDS011;63320;50.768;6.724;2023-09-30T08:45:38;9.60;;;4.30;;
74793;SDS011;63320;50.768;6.724;2023-09-30T08:48:08;8.98;;;4.15;;
74793;SDS011;63320;50.768;6.724;2023-09-30T08:50:33;8.48;;;4.45;;
74793;SDS011;63320;50.768;6.724;2023-09-30T08:53:01;7.30;;;4.28;;
74793;SDS011;63320;50.768;6.724;2023-09-30T08:55:28;8.35;;;4.32;;
74793;SDS011;63320;50.768;6.724;2023-09-30T08:57:53;11.68;;;5.68;;
74793;SDS011;63320;50.768;6.724;2023-09-30T09:00:20;8.43;;;4.63;;
74793;SDS011;63320;50.768;6.724;2023-09-30T09:02:47;14.32;;;7.03;;
74793;SDS011;63320;50.768;6.724;2023-09-30T09:05:14;11.68;;;5.57;;
74793;SDS011;63320;50.768;6.724;2023-09-30T09:07:40;9.55;;;4.40;;
74793;SDS011;63320;50.768;6.724;2023-09-30T09:10:05;10.40;;;4.53;;
74793;SDS011;63320;50.768;6.724;2023-09-30T09:12:32;8.82;;;4.38;;
74793;SDS011;63320;50.768;6.724;2023-09-30T09:14:59;11.02;;;4.70;;
74793;SDS011;63320;50.768;6.724;2023-09-30T09:17:24;9.75;;;5.82;;
74793;SDS011;63320;50.768;6.724;2023-09-30T09:20:07;9.48;;;3.95;;
74793;SDS011;63320;50.768;6.724;2023-09-30T09:22:39;10.02;;;4.32;;
74793;SDS011;63320;50.768;6.724;2023-09-30T09:25:06;9.45;;;4.38;;
74793;SDS011;63320;50.768;6.724;2023-09-30T09:27:32;9.18;;;4.13;;
74793;SDS011;63320;50.768;6.724;2023-09-30T09:30:00;7.72;;;3.65;;
74793;SDS011;63320;50.768;6.724;2023-09-30T09:32:39;9.10;;;3.42;;
74793;SDS011;63320;50.768;6.724;2023-09-30T09:35:04;9.85;;;4.63;;
74793;SDS011;63320;50.768;6.724;2023-09-30T09:37:31;8.20;;;3.70;;
74793;SDS011;63320;50.768;6.724;2023-09-30T09:39:57;9.27;;;4.15;;
74793;SDS011;63320;50.768;6.724;2023-09-30T09:42:26;7.10;;;3.85;;
74793;SDS011;63320;50.768;6.724;2023-09-30T09:44:54;7.47;;;2.97;;
74793;SDS011;63320;50.768;6.724;2023-09-30T09:47:21;8.35;;;3.58;;
74793;SDS011;63320;50.768;6.724;2023-09-30T09:49:47;8.10;;;3.88;;
74793;SDS011;63320;50.768;6.724;2023-09-30T09:52:14;8.00;;;3.22;;
74793;SDS011;63320;50.768;6.724;2023-09-30T09:54:40;11.05;;;3.78;;
74793;SDS011;63320;50.768;6.724;2023-09-30T09:57:08;10.93;;;3.28;;
74793;SDS011;63320;50.768;6.724;2023-09-30T09:59:35;11.20;;;4.43;;
74793;SDS011;63320;50.768;6.724;2023-09-30T10:02:01;8.35;;;2.90;;
74793;SDS011;63320;50.768;6.724;2023-09-30T10:04:34;9.38;;;3.15;;
74793;SDS011;63320;50.768;6.724;2023-09-30T10:06:59;10.40;;;3.72;;
74793;SDS011;63320;50.768;6.724;2023-09-30T10:09:27;8.90;;;3.30;;
74793;SDS011;63320;50.768;6.724;2023-09-30T10:11:57;9.27;;;3.28;;
74793;SDS011;63320;50.768;6.724;2023-09-30T10:14:29;10.50;;;4.10;;
74793;SDS011;63320;50.768;6.724;2023-09-30T10:16:55;8.85;;;3.28;;
74793;SDS011;63320;50.768;6.724;2023-09-30T10:19:21;14.55;;;4.25;;
74793;SDS011;63320;50.768;6.724;2023-09-30T10:24:47;10.95;;;3.35;;
74793;SDS011;63320;50.768;6.724;2023-09-30T10:27:31;10.15;;;3.20;;
74793;SDS011;63320;50.768;6.724;2023-09-30T10:29:58;13.15;;;5.53;;
74793;SDS011;63320;50.768;6.724;2023-09-30T10:32:25;10.48;;;4.00;;
74793;SDS011;63320;50.768;6.724;2023-09-30T10:35:42;10.52;;;3.72;;
74793;SDS011;63320;50.768;6.724;2023-09-30T10:41:04;7.20;;;2.80;;
74793;SDS011;63320;50.768;6.724;2023-09-30T10:43:29;9.48;;;2.83;;
74793;SDS011;63320;50.768;6.724;2023-09-30T10:45:55;9.02;;;2.90;;
74793;SDS011;63320;50.768;6.724;2023-09-30T10:48:35;9.32;;;2.38;;
74793;SDS011;63320;50.768;6.724;2023-09-30T10:51:10;8.07;;;2.45;;
74793;SDS011;63320;50.768;6.724;2023-09-30T10:53:40;8.25;;;2.95;;
74793;SDS011;63320;50.768;6.724;2023-09-30T10:56:08;12.10;;;6.32;;
74793;SDS011;63320;50.768;6.724;2023-09-30T10:58:40;8.57;;;3.15;;
74793;SDS011;63320;50.768;6.724;2023-09-30T11:01:06;11.25;;;3.05;;
74793;SDS011;63320;50.768;6.724;2023-09-30T11:03:32;9.65;;;3.03;;
74793;SDS011;63320;50.768;6.724;2023-09-30T11:05:57;10.38;;;3.30;;
74793;SDS011;63320;50.768;6.724;2023-09-30T11:08:22;8.02;;;3.17;;
74793;SDS011;63320;50.768;6.724;2023-09-30T11:10:48;8.93;;;3.20;;
74793;SDS011;63320;50.768;6.724;2023-09-30T11:13:15;10.00;;;2.90;;
74793;SDS011;63320;50.768;6.724;2023-09-30T11:15:40;10.50;;;2.80;;
74793;SDS011;63320;50.768;6.724;2023-09-30T11:18:12;9.18;;;3.53;;
74793;SDS011;63320;50.768;6.724;2023-09-30T11:20:38;11.70;;;3.60;;
74793;SDS011;63320;50.768;6.724;2023-09-30T11:23:03;10.38;;;3.53;;
74793;SDS011;63320;50.768;6.724;2023-09-30T11:25:29;9.68;;;3.20;;
74793;SDS011;63320;50.768;6.724;2023-09-30T11:28:11;10.95;;;3.20;;
74793;SDS011;63320;50.768;6.724;2023-09-30T11:33:31;9.32;;;2.92;;
74793;SDS011;63320;50.768;6.724;2023-09-30T11:35:57;10.18;;;3.17;;
74793;SDS011;63320;50.768;6.724;2023-09-30T11:38:23;6.68;;;2.67;;
74793;SDS011;63320;50.768;6.724;2023-09-30T11:40:57;9.10;;;2.80;;
74793;SDS011;63320;50.768;6.724;2023-09-30T11:43:26;8.07;;;3.03;;
74793;SDS011;63320;50.768;6.724;2023-09-30T11:45:51;8.48;;;2.58;;
74793;SDS011;63320;50.768;6.724;2023-09-30T11:48:17;9.27;;;2.70;;
74793;SDS011;63320;50.768;6.724;2023-09-30T11:50:48;11.68;;;3.60;;
74793;SDS011;63320;50.768;6.724;2023-09-30T11:53:16;13.38;;;3.00;;
74793;SDS011;63320;50.768;6.724;2023-09-30T13:42:43;5.63;;;2.03;;
74793;SDS011;63320;50.768;6.724;2023-09-30T13:45:09;8.82;;;2.20;;
74793;SDS011;63320;50.768;6.724;2023-09-30T13:47:34;6.82;;;2.20;;
74793;SDS011;63320;50.768;6.724;2023-09-30T13:50:00;7.63;;;2.30;;
74793;SDS011;63320;50.768;6.724;2023-09-30T13:52:25;9.68;;;2.22;;
74793;SDS011;63320;50.768;6.724;2023-09-30T13:54:50;9.97;;;2.53;;
74793;SDS011;63320;50.768;6.724;2023-09-30T13:57:16;9.83;;;2.37;;
74793;SDS011;63320;50.768;6.724;2023-09-30T13:59:42;8.30;;;2.47;;
74793;SDS011;63320;50.768;6.724;2023-09-30T14:02:07;7.68;;;2.25;;
74793;SDS011;63320;50.768;6.724;2023-09-30T14:04:32;6.07;;;2.50;;
74793;SDS011;63320;50.768;6.724;2023-09-30T14:06:58;7.63;;;2.27;;
74793;SDS011;63320;50.768;6.724;2023-09-30T14:09:23;7.17;;;2.43;;
74793;SDS011;63320;50.768;6.724;2023-09-30T14:11:48;6.63;;;2.20;;
74793;SDS011;63320;50.768;6.724;2023-09-30T14:14:13;8.63;;;2.47;;
74793;SDS011;63320;50.768;6.724;2023-09-30T14:16:40;7.97;;;2.40;;
74793;SDS011;63320;50.768;6.724;2023-09-30T14:19:05;6.22;;;2.00;;
74793;SDS011;63320;50.768;6.724;2023-09-30T14:21:30;11.27;;;5.53;;
74793;SDS011;63320;50.768;6.724;2023-09-30T14:23:55;8.67;;;3.30;;
74793;SDS011;63320;50.768;6.724;2023-09-30T14:26:20;8.27;;;2.60;;
74793;SDS011;63320;50.768;6.724;2023-09-30T14:28:45;10.13;;;2.50;;
74793;SDS011;63320;50.768;6.724;2023-09-30T14:31:10;6.53;;;2.40;;
74793;SDS011;63320;50.768;6.724;2023-09-30T14:33:37;8.47;;;2.57;;
74793;SDS011;63320;50.768;6.724;2023-09-30T14:36:02;6.70;;;2.17;;
74793;SDS011;63320;50.768;6.724;2023-09-30T14:38:28;6.45;;;2.38;;
74793;SDS011;63320;50.768;6.724;2023-09-30T14:40:53;6.70;;;2.40;;
74793;SDS011;63320;50.768;6.724;2023-09-30T14:43:18;8.33;;;2.40;;
74793;SDS011;63320;50.768;6.724;2023-09-30T14:45:43;8.07;;;2.30;;
74793;SDS011;63320;50.768;6.724;2023-09-30T14:48:08;8.67;;;2.50;;
74793;SDS011;63320;50.768;6.724;2023-09-30T14:50:35;7.25;;;2.30;;
74793;SDS011;63320;50.768;6.724;2023-09-30T14:53:00;11.00;;;2.70;;
74793;SDS011;63320;50.768;6.724;2023-09-30T14:55:26;10.43;;;2.90;;
74793;SDS011;63320;50.768;6.724;2023-09-30T14:57:51;8.00;;;2.63;;
74793;SDS011;63320;50.768;6.724;2023-09-30T15:00:16;8.67;;;2.40;;
74793;SDS011;63320;50.768;6.724;2023-09-30T15:02:41;6.63;;;2.07;;
74793;SDS011;63320;50.768;6.724;2023-09-30T15:05:06;7.83;;;2.40;;
74793;SDS011;63320;50.768;6.724;2023-09-30T15:07:33;8.50;;;2.50;;
74793;SDS011;63320;50.768;6.724;2023-09-30T15:09:58;8.63;;;2.50;;
74793;SDS011;63320;50.768;6.724;2023-09-30T15:12:23;8.25;;;2.08;;
74793;SDS011;63320;50.768;6.724;2023-09-30T15:14:48;8.80;;;2.30;;
74793;SDS011;63320;50.768;6.724;2023-09-30T15:17:14;6.87;;;2.33;;
74793;SDS011;63320;50.768;6.724;2023-09-30T15:19:39;13.83;;;2.63;;
74793;SDS011;63320;50.768;6.724;2023-09-30T15:22:04;7.50;;;2.40;;
74793;SDS011;63320;50.768;6.724;2023-09-30T15:24:30;7.67;;;2.17;;
74793;SDS011;63320;50.768;6.724;2023-09-30T15:26:56;8.50;;;2.42;;
74793;SDS011;63320;50.768;6.724;2023-09-30T15:29:21;6.57;;;2.40;;
74793;SDS011;63320;50.768;6.724;2023-09-30T15:31:46;8.07;;;1.90;;
74793;SDS011;63320;50.768;6.724;2023-09-30T15:34:11;7.17;;;2.47;;
74793;SDS011;63320;50.768;6.724;2023-09-30T15:36:36;6.07;;;2.47;;
74793;SDS011;63320;50.768;6.724;2023-09-30T15:39:02;9.00;;;2.60;;
74793;SDS011;63320;50.768;6.724;2023-09-30T15:41:28;7.95;;;2.13;;
74793;SDS011;63320;50.768;6.724;2023-09-30T15:43:53;7.68;;;2.55;;
74793;SDS011;63320;50.768;6.724;2023-09-30T15:46:22;8.48;;;2.17;;
74793;SDS011;63320;50.768;6.724;2023-09-30T15:48:47;7.00;;;2.10;;
74793;SDS011;63320;50.768;6.724;2023-09-30T15:51:13;8.70;;;1.97;;
74793;SDS011;63320;50.768;6.724;2023-09-30T15:53:38;7.57;;;2.33;;
74793;SDS011;63320;50.768;6.724;2023-09-30T15:56:03;7.27;;;2.17;;
74793;SDS011;63320;50.768;6.724;2023-09-30T15:58:29;7.53;;;2.80;;
74793;SDS011;63320;50.768;6.724;2023-09-30T16:00:55;6.55;;;2.25;;
74793;SDS011;63320;50.768;6.724;2023-09-30T16:03:20;7.80;;;2.13;;
74793;SDS011;63320;50.768;6.724;2023-09-30T16:05:45;8.87;;;2.30;;
74793;SDS011;63320;50.768;6.724;2023-09-30T16:08:10;6.67;;;2.20;;
74793;SDS011;63320;50.768;6.724;2023-09-30T16:10:35;8.63;;;2.80;;
74793;SDS011;63320;50.768;6.724;2023-09-30T16:13:01;6.97;;;2.33;;
74793;SDS011;63320;50.768;6.724;2023-09-30T16:15:28;7.72;;;2.42;;
74793;SDS011;63320;50.768;6.724;2023-09-30T16:17:53;8.40;;;2.50;;
74793;SDS011;63320;50.768;6.724;2023-09-30T16:20:18;8.33;;;2.10;;
74793;SDS011;63320;50.768;6.724;2023-09-30T16:22:43;8.93;;;2.20;;
74793;SDS011;63320;50.768;6.724;2023-09-30T16:25:08;6.13;;;2.03;;
74793;SDS011;63320;50.768;6.724;2023-09-30T16:27:34;6.85;;;1.80;;